Time;durP1;ratioP1;P1;durP2;ratioP2;P2;SDS_P1;SDS_P2;PMS_P1;PMS_P2;Temp;Humidity;BMP_temperature;BMP_pressure;BME280_temperature;BME280_humidity;BME280_pressure;Samples;Min_cycle;Max_cycle;Signal;HPM_P1;HPM_P2
2023/08/06 00:00:37;;;;;;;18.30;11.10;;;;;;;23.74;100.00;100697.17;106815;1284;58466;-80
2023/08/06 00:03:03;;;;;;;15.70;10.40;;;;;;;23.71;100.00;100694.25;106715;1284;58717;-80
2023/08/06 00:05:28;;;;;;;18.90;11.70;;;;;;;23.70;100.00;100696.02;106796;1285;58310;-79
2023/08/06 00:07:54;;;;;;;18.20;11.80;;;;;;;23.71;100.00;100696.06;106812;1284;58317;-80
2023/08/06 00:10:19;;;;;;;17.10;10.70;;;;;;;23.71;100.00;100691.42;106677;1285;58279;-80
2023/08/06 00:12:45;;;;;;;20.00;11.40;;;;;;;23.71;100.00;100690.26;106951;1283;58681;-80
2023/08/06 00:15:11;;;;;;;18.80;11.00;;;;;;;23.70;100.00;100691.45;106924;1284;58260;-80
2023/08/06 00:17:37;;;;;;;18.60;11.50;;;;;;;23.69;100.00;100689.68;106871;1284;58320;-79
2023/08/06 00:20:06;;;;;;;20.20;11.40;;;;;;;23.68;100.00;100688.86;106886;1283;58279;-80
2023/08/06 00:22:36;;;;;;;19.80;11.70;;;;;;;23.66;100.00;100684.16;106879;1283;61720;-81
2023/08/06 00:25:03;;;;;;;16.50;10.30;;;;;;;23.63;100.00;100686.42;106549;1283;466022;-80
2023/08/06 00:27:29;;;;;;;17.70;10.30;;;;;;;23.61;100.00;100685.58;106898;1283;74454;-79
2023/08/06 00:29:55;;;;;;;16.40;11.00;;;;;;;23.60;100.00;100680.45;106890;1284;58463;-80
2023/08/06 00:32:21;;;;;;;16.10;10.70;;;;;;;23.58;100.00;100677.49;106670;1283;58693;-79
2023/08/06 00:34:49;;;;;;;17.20;10.30;;;;;;;23.56;100.00;100668.85;106862;1284;58156;-79
2023/08/06 00:37:16;;;;;;;22.40;11.20;;;;;;;23.54;100.00;100662.41;106754;1285;58696;-79
2023/08/06 00:39:42;;;;;;;21.50;10.80;;;;;;;23.52;100.00;100657.02;106901;1284;58394;-79
2023/08/06 00:42:07;;;;;;;19.70;11.40;;;;;;;23.51;100.00;100650.61;106882;1284;58301;-79
2023/08/06 00:44:33;;;;;;;15.10;10.10;;;;;;;23.48;100.00;100646.54;106896;1285;58280;-80
2023/08/06 00:46:58;;;;;;;17.70;10.70;;;;;;;23.47;100.00;100643.73;106908;1283;58217;-80
2023/08/06 00:49:24;;;;;;;19.90;10.50;;;;;;;23.44;100.00;100645.45;107024;1284;58346;-79
2023/08/06 00:51:49;;;;;;;16.50;10.30;;;;;;;23.40;100.00;100641.30;106892;1284;74346;-79
2023/08/06 00:54:16;;;;;;;17.60;10.50;;;;;;;23.39;100.00;100636.94;106917;1283;58294;-79
2023/08/06 00:56:42;;;;;;;18.50;10.50;;;;;;;23.38;100.00;100634.31;106847;1284;58270;-79
2023/08/06 00:59:09;;;;;;;17.10;10.10;;;;;;;23.35;100.00;100630.25;106928;1283;58327;-79
2023/08/06 01:01:35;;;;;;;21.00;10.80;;;;;;;23.31;100.00;100624.16;106708;1285;58254;-80
2023/08/06 01:04:01;;;;;;;15.90;10.30;;;;;;;23.29;100.00;100625.15;106926;1283;58323;-79
2023/08/06 01:06:58;;;;;;;22.20;11.30;;;;;;;23.28;100.00;100625.69;106848;1284;58209;-79
2023/08/06 01:09:50;;;;;;;22.10;10.80;;;;;;;23.27;100.00;100622.27;106331;1289;61787;-80
2023/08/06 01:12:48;;;;;;;20.10;11.60;;;;;;;23.24;100.00;100618.02;106366;1289;59250;-79
2023/08/06 01:15:28;;;;;;;20.00;11.70;;;;;;;23.21;100.00;100618.55;106360;1289;74840;-79
2023/08/06 01:17:53;;;;;;;20.00;11.90;;;;;;;23.18;100.00;100613.17;106221;1289;73605;-80
2023/08/06 01:20:19;;;;;;;17.00;11.10;;;;;;;23.17;100.00;100609.39;106374;1289;59292;-79
2023/08/06 01:22:44;;;;;;;17.30;11.40;;;;;;;23.17;100.00;100609.38;106334;1289;58255;-80
2023/08/06 01:25:11;;;;;;;16.30;11.30;;;;;;;23.16;100.00;100607.78;106367;1289;58342;-80
2023/08/06 01:28:00;;;;;;;16.50;11.60;;;;;;;23.13;100.00;100611.08;106321;1289;58265;-80
2023/08/06 01:30:30;;;;;;;22.30;12.80;;;;;;;23.09;100.00;100615.52;106349;1289;73790;-79
2023/08/06 01:33:00;;;;;;;20.70;13.40;;;;;;;23.06;100.00;100608.89;106330;1290;72618;-80
2023/08/06 01:35:29;;;;;;;19.70;13.40;;;;;;;23.04;100.00;100609.63;106303;1291;62681;-80
2023/08/06 01:37:56;;;;;;;21.90;13.10;;;;;;;23.01;100.00;100605.61;106338;1289;60845;-80
2023/08/06 01:40:21;;;;;;;24.80;13.60;;;;;;;22.98;100.00;100605.20;106373;1289;74507;-80
2023/08/06 01:42:47;;;;;;;21.20;14.00;;;;;;;22.97;100.00;100601.37;106352;1289;58295;-79
2023/08/06 01:45:13;;;;;;;20.00;13.30;;;;;;;22.95;100.00;100601.23;106363;1289;58367;-80
2023/08/06 01:47:38;;;;;;;20.10;11.90;;;;;;;22.93;100.00;100601.38;106841;1283;58635;-80
2023/08/06 01:50:04;;;;;;;17.70;11.30;;;;;;;22.92;100.00;100596.08;106845;1284;58282;-80
2023/08/06 01:52:30;;;;;;;19.20;10.70;;;;;;;22.91;100.00;100597.95;106863;1283;74654;-80
2023/08/06 01:54:55;;;;;;;15.90;11.10;;;;;;;22.92;100.00;100591.13;106747;1284;58723;-80
2023/08/06 01:57:21;;;;;;;17.00;11.10;;;;;;;22.92;100.00;100594.04;106867;1285;58595;-80
2023/08/06 01:59:47;;;;;;;15.30;10.40;;;;;;;22.93;100.00;100599.57;106887;1283;58261;-80
2023/08/06 02:02:12;;;;;;;20.30;10.80;;;;;;;22.95;100.00;100601.27;106921;1284;58229;-80
2023/08/06 02:04:38;;;;;;;16.30;10.40;;;;;;;22.96;100.00;100595.92;106921;1284;58624;-80
2023/08/06 02:07:03;;;;;;;25.20;11.40;;;;;;;22.96;100.00;100593.89;106883;1284;58565;-80
2023/08/06 02:09:29;;;;;;;17.80;11.40;;;;;;;22.94;100.00;100592.30;106877;1283;58307;-79
2023/08/06 02:11:54;;;;;;;15.30;11.30;;;;;;;22.92;100.00;100591.69;106874;1284;58261;-79
2023/08/06 02:14:20;;;;;;;22.10;11.50;;;;;;;22.90;100.00;100585.34;106910;1283;58316;-79
2023/08/06 02:16:45;;;;;;;19.00;12.10;;;;;;;22.87;100.00;100584.31;106893;1284;58318;-80
2023/08/06 02:19:11;;;;;;;22.30;12.60;;;;;;;22.88;100.00;100582.30;106732;1285;58457;-80
2023/08/06 02:21:36;;;;;;;24.50;12.90;;;;;;;22.88;100.00;100582.69;106912;1284;58256;-80
2023/08/06 02:24:02;;;;;;;22.50;11.40;;;;;;;22.88;100.00;100582.75;106894;1283;58171;-79
2023/08/06 02:26:28;;;;;;;23.10;13.70;;;;;;;22.89;100.00;100577.63;106870;1283;58399;-79
2023/08/06 02:28:53;;;;;;;30.20;15.10;;;;;;;22.92;100.00;100578.90;106634;1284;58339;-80
2023/08/06 02:31:19;;;;;;;26.40;13.40;;;;;;;23.01;100.00;100580.85;106899;1284;58309;-80
2023/08/06 02:33:44;;;;;;;21.20;12.00;;;;;;;23.10;100.00;100578.58;106915;1283;58353;-80
2023/08/06 02:36:10;;;;;;;19.40;11.80;;;;;;;23.18;100.00;100578.01;106603;1284;58605;-79
2023/08/06 02:38:35;;;;;;;19.90;12.80;;;;;;;23.26;100.00;100575.41;106923;1283;58215;-79
2023/08/06 02:41:04;;;;;;;28.90;15.00;;;;;;;23.32;100.00;100573.42;106942;1284;58920;-80
2023/08/06 02:43:30;;;;;;;22.10;13.50;;;;;;;23.39;100.00;100569.91;106850;1283;73294;-80
2023/08/06 02:45:59;;;;;;;17.40;10.40;;;;;;;23.45;100.00;100569.86;106855;1284;58317;-79
2023/08/06 02:48:24;;;;;;;17.30;10.10;;;;;;;23.50;100.00;100570.02;106888;1284;62875;-80
2023/08/06 02:50:50;;;;;;;21.30;10.20;;;;;;;23.57;100.00;100570.15;106893;1283;58334;-80
2023/08/06 02:53:16;;;;;;;32.20;12.10;;;;;;;23.63;100.00;100569.20;106895;1284;58249;-79
2023/08/06 02:55:48;;;;;;;27.40;11.40;;;;;;;23.69;100.00;100570.09;106923;1284;58297;-79
2023/08/06 02:58:17;;;;;;;36.80;15.20;;;;;;;23.76;100.00;100570.41;106836;1284;72782;-80
2023/08/06 03:00:44;;;;;;;23.30;13.60;;;;;;;23.82;100.00;100577.34;106852;1284;62150;-80
2023/08/06 03:03:12;;;;;;;24.50;14.20;;;;;;;23.87;100.00;100573.88;106884;1284;61173;-80
2023/08/06 03:05:37;;;;;;;26.30;12.10;;;;;;;23.92;100.00;100569.20;106868;1284;74713;-80
2023/08/06 03:08:03;;;;;;;25.00;11.30;;;;;;;23.96;100.00;100569.48;106869;1284;58351;-80
2023/08/06 03:10:29;;;;;;;24.20;11.40;;;;;;;24.02;100.00;100567.20;106853;1284;58308;-79
2023/08/06 03:12:54;;;;;;;25.60;12.50;;;;;;;24.07;100.00;100565.36;106710;1283;58333;-79
2023/08/06 03:15:19;;;;;;;24.10;12.20;;;;;;;24.11;100.00;100565.39;106898;1284;58425;-80
2023/08/06 03:17:45;;;;;;;22.70;11.70;;;;;;;24.16;100.00;100568.77;106928;1285;58552;-80
2023/08/06 03:20:10;;;;;;;18.90;10.50;;;;;;;24.22;100.00;100567.03;106880;1285;58292;-79
2023/08/06 03:22:36;;;;;;;19.00;10.50;;;;;;;24.29;100.00;100564.30;106933;1283;58220;-79
2023/08/06 03:25:03;;;;;;;15.40;9.80;;;;;;;24.37;100.00;100564.36;106915;1284;59208;-79
2023/08/06 03:27:28;;;;;;;21.40;10.80;;;;;;;24.50;100.00;100568.08;106881;1284;58272;-79
2023/08/06 03:29:54;;;;;;;21.60;10.30;;;;;;;24.60;100.00;100565.36;106800;1285;58315;-81
2023/08/06 03:32:19;;;;;;;31.40;10.90;;;;;;;24.71;100.00;100565.86;106841;1284;62788;-80
2023/08/06 03:34:45;;;;;;;21.80;10.60;;;;;;;24.84;100.00;100563.67;106729;1285;58446;-80
2023/08/06 03:37:10;;;;;;;16.80;10.30;;;;;;;24.97;100.00;100560.96;106908;1284;58446;-80
2023/08/06 03:39:36;;;;;;;18.60;10.00;;;;;;;25.07;100.00;100559.55;106941;1285;58781;-80
2023/08/06 03:42:01;;;;;;;15.90;10.50;;;;;;;25.19;100.00;100559.92;106888;1285;58174;-80
2023/08/06 03:44:28;;;;;;;21.10;10.50;;;;;;;25.31;100.00;100555.31;106897;1284;59664;-80
2023/08/06 03:46:53;;;;;;;25.90;10.60;;;;;;;25.55;100.00;100555.90;106861;1284;58252;-81
2023/08/06 03:49:19;;;;;;;17.10;10.30;;;;;;;25.96;100.00;100548.53;106869;1284;58320;-81
2023/08/06 03:51:44;;;;;;;17.90;10.00;;;;;;;26.56;100.00;100554.05;106841;1284;58276;-80
2023/08/06 03:54:10;;;;;;;19.30;10.10;;;;;;;27.22;100.00;100559.20;106846;1283;58499;-80
2023/08/06 03:56:35;;;;;;;14.50;8.80;;;;;;;27.89;100.00;100554.13;106940;1284;58331;-81
2023/08/06 03:59:01;;;;;;;14.40;9.10;;;;;;;28.57;100.00;100551.02;106608;1283;58324;-80
2023/08/06 04:01:26;;;;;;;13.50;8.40;;;;;;;29.04;99.84;100553.76;106855;1285;58295;-80
2023/08/06 04:03:52;;;;;;;16.60;9.10;;;;;;;29.32;97.68;100555.04;106878;1284;58197;-81
2023/08/06 04:06:17;;;;;;;18.90;9.00;;;;;;;29.73;94.69;100548.41;106893;1284;59050;-80
2023/08/06 04:08:45;;;;;;;14.30;9.00;;;;;;;30.05;92.00;100558.35;106934;1284;58745;-81
2023/08/06 04:11:14;;;;;;;21.60;9.50;;;;;;;30.45;88.12;100554.31;106524;1284;72692;-81
2023/08/06 04:13:47;;;;;;;15.10;9.20;;;;;;;30.91;85.54;100548.82;106633;1284;60294;-80
2023/08/06 04:16:14;;;;;;;15.10;8.40;;;;;;;31.34;80.87;100553.52;106844;1285;60329;-81
2023/08/06 04:18:40;;;;;;;12.40;8.80;;;;;;;31.72;79.93;100558.93;106797;1285;74811;-81
2023/08/06 04:21:06;;;;;;;17.10;9.50;;;;;;;32.08;75.07;100546.90;106803;1285;58309;-81
2023/08/06 04:23:32;;;;;;;17.80;9.10;;;;;;;32.18;73.19;100546.36;106781;1285;58853;-81
2023/08/06 04:25:58;;;;;;;20.60;9.10;;;;;;;32.51;73.55;100542.20;106777;1284;58264;-81
2023/08/06 04:28:23;;;;;;;16.90;8.40;;;;;;;32.88;68.71;100536.63;106823;1285;58239;-82
2023/08/06 04:30:49;;;;;;;14.80;8.60;;;;;;;32.87;67.38;100535.67;106583;1284;58386;-81
2023/08/06 04:33:14;;;;;;;17.40;8.20;;;;;;;33.09;66.92;100536.10;106827;1285;58224;-81
2023/08/06 04:35:40;;;;;;;13.90;7.90;;;;;;;33.14;64.57;100533.96;106559;1284;58662;-81
2023/08/06 04:38:05;;;;;;;12.80;8.10;;;;;;;33.35;64.55;100544.02;106838;1284;58252;-81
2023/08/06 04:40:34;;;;;;;17.60;8.80;;;;;;;33.79;64.13;100542.28;106550;1284;58275;-81
2023/08/06 04:43:00;;;;;;;17.90;8.40;;;;;;;34.22;61.94;100541.52;106809;1285;58563;-81
2023/08/06 04:45:26;;;;;;;13.50;8.20;;;;;;;34.58;60.23;100535.84;106774;1285;58202;-82
2023/08/06 04:47:51;;;;;;;11.60;8.50;;;;;;;34.82;58.40;100538.30;106834;1285;59455;-82
2023/08/06 04:50:17;;;;;;;17.00;8.40;;;;;;;34.91;57.06;100533.35;106778;1285;58584;-81
2023/08/06 04:52:42;;;;;;;11.60;7.80;;;;;;;34.76;55.90;100530.00;106753;1289;58295;-81
2023/08/06 04:55:08;;;;;;;17.70;8.80;;;;;;;34.83;55.41;100529.72;106840;1285;58233;-79
2023/08/06 04:57:34;;;;;;;31.00;9.40;;;;;;;34.79;54.75;100528.11;106818;1285;59063;-79
2023/08/06 04:59:59;;;;;;;18.00;9.20;;;;;;;34.89;54.90;100527.20;106822;1285;59458;-79
2023/08/06 05:02:25;;;;;;;16.70;8.70;;;;;;;35.28;53.88;100525.77;106786;1289;59181;-80
2023/08/06 05:04:51;;;;;;;12.30;8.60;;;;;;;35.42;53.13;100521.77;106787;1285;59045;-80
2023/08/06 05:07:16;;;;;;;14.80;8.90;;;;;;;35.36;52.32;100527.84;106781;1285;59118;-80
2023/08/06 05:09:42;;;;;;;14.20;8.40;;;;;;;35.40;53.01;100522.05;106855;1285;59618;-78
2023/08/06 05:12:07;;;;;;;20.20;9.10;;;;;;;35.73;51.96;100516.65;106893;1284;59077;-79
2023/08/06 05:14:33;;;;;;;21.30;9.40;;;;;;;35.98;51.42;100514.47;106896;1284;59127;-79
2023/08/06 05:16:58;;;;;;;14.20;8.80;;;;;;;36.11;50.13;100514.50;106865;1285;59080;-79
2023/08/06 05:19:24;;;;;;;24.30;9.50;;;;;;;36.27;49.89;100514.59;106870;1285;59058;-80
2023/08/06 05:21:49;;;;;;;18.40;9.00;;;;;;;36.37;49.37;100514.98;106929;1285;59519;-79
2023/08/06 05:24:15;;;;;;;14.90;8.40;;;;;;;36.59;48.97;100512.04;106583;1285;59133;-79
2023/08/06 05:26:40;;;;;;;20.20;8.60;;;;;;;36.81;47.84;100512.73;106867;1285;59033;-79
2023/08/06 05:29:06;;;;;;;15.60;9.10;;;;;;;36.69;47.25;100513.54;106774;1284;59072;-79
2023/08/06 05:31:31;;;;;;;18.00;9.20;;;;;;;36.51;47.74;100507.02;106855;1285;59375;-78
2023/08/06 05:33:57;;;;;;;18.00;8.80;;;;;;;36.69;47.48;100503.98;106887;1285;59105;-80
2023/08/06 05:36:22;;;;;;;17.40;8.90;;;;;;;36.96;47.32;100498.45;106908;1285;58971;-79
2023/08/06 05:38:48;;;;;;;12.80;8.70;;;;;;;37.24;46.30;100501.42;106907;1284;59058;-79
2023/08/06 05:41:13;;;;;;;22.80;9.10;;;;;;;37.26;46.24;100490.20;106907;1285;59149;-79
2023/08/06 05:43:39;;;;;;;16.40;9.00;;;;;;;37.43;45.61;100486.98;106579;1284;59141;-79
2023/08/06 05:46:04;;;;;;;16.10;9.40;;;;;;;37.31;45.39;100484.38;106899;1285;58991;-81
2023/08/06 05:48:31;;;;;;;13.80;8.90;;;;;;;37.62;45.80;100485.46;106902;1284;59031;-79
2023/08/06 05:50:57;;;;;;;19.90;9.10;;;;;;;37.88;44.29;100489.54;106922;1284;61664;-80
2023/08/06 05:53:22;;;;;;;15.10;9.00;;;;;;;37.74;44.20;100489.09;106911;1284;59074;-80
2023/08/06 05:55:48;;;;;;;23.20;9.70;;;;;;;37.63;43.58;100491.54;106880;1285;59121;-80
2023/08/06 05:58:13;;;;;;;19.10;9.30;;;;;;;37.61;43.97;100489.34;106870;1284;59755;-81
2023/08/06 06:00:39;;;;;;;26.20;10.20;;;;;;;37.96;43.47;100494.52;106928;1283;59254;-80
2023/08/06 06:03:05;;;;;;;17.30;10.00;;;;;;;38.03;42.86;100494.79;106868;1284;75561;-81
2023/08/06 06:05:30;;;;;;;18.70;8.90;;;;;;;38.10;42.50;100489.10;106695;1284;59125;-80
2023/08/06 06:07:55;;;;;;;18.80;9.70;;;;;;;38.15;42.45;100486.11;106838;1285;59165;-81
2023/08/06 06:10:21;;;;;;;19.10;10.60;;;;;;;38.22;42.05;100483.96;106874;1284;59017;-80
2023/08/06 06:12:47;;;;;;;18.60;10.40;;;;;;;38.17;42.61;100478.56;106949;1285;59118;-81
2023/08/06 06:15:12;;;;;;;17.20;10.50;;;;;;;38.58;42.12;100477.50;106585;1283;59346;-80
2023/08/06 06:17:38;;;;;;;19.60;11.60;;;;;;;38.95;41.74;100474.49;106870;1285;59399;-80
2023/08/06 06:20:04;;;;;;;21.20;12.70;;;;;;;39.23;40.74;100471.02;106868;1284;59370;-80
2023/08/06 06:22:30;;;;;;;25.50;13.20;;;;;;;39.25;40.30;100470.86;106337;1285;59427;-80
2023/08/06 06:24:56;;;;;;;19.90;13.10;;;;;;;39.48;40.20;100463.00;106920;1284;59563;-80
2023/08/06 06:27:21;;;;;;;24.40;13.30;;;;;;;39.78;40.10;100459.15;106910;1284;59146;-80
2023/08/06 06:29:47;;;;;;;21.20;11.50;;;;;;;40.32;39.60;100455.88;106908;1284;58970;-81
2023/08/06 06:32:12;;;;;;;23.90;12.50;;;;;;;40.63;39.14;100461.09;106887;1284;59352;-82
2023/08/06 06:34:38;;;;;;;30.90;13.10;;;;;;;41.05;39.13;100459.21;106930;1285;59076;-81
2023/08/06 06:37:04;;;;;;;27.40;11.80;;;;;;;41.60;38.38;100462.61;106877;1287;59124;-80
2023/08/06 06:39:29;;;;;;;23.90;10.40;;;;;;;41.72;36.96;100462.75;106749;1283;59015;-81
2023/08/06 06:41:55;;;;;;;15.20;8.80;;;;;;;41.50;36.74;100458.33;106909;1285;59001;-82
2023/08/06 06:44:20;;;;;;;13.70;8.70;;;;;;;41.37;36.33;100456.27;106571;1285;75900;-79
2023/08/06 06:46:46;;;;;;;13.70;9.20;;;;;;;41.03;36.78;100459.71;106853;1284;59052;-80
2023/08/06 06:49:12;;;;;;;22.30;9.60;;;;;;;40.86;37.02;100461.29;106874;1285;58987;-79
2023/08/06 06:51:37;;;;;;;25.70;9.10;;;;;;;40.78;37.00;100457.36;106911;1285;59080;-81
2023/08/06 06:54:03;;;;;;;18.50;9.10;;;;;;;40.81;36.74;100458.99;106904;1284;59127;-80
2023/08/06 06:56:28;;;;;;;18.60;8.70;;;;;;;40.79;36.64;100455.64;106912;1284;59413;-80
2023/08/06 06:58:54;;;;;;;20.10;8.80;;;;;;;40.76;37.08;100455.30;106882;1284;59096;-80
2023/08/06 07:01:19;;;;;;;19.20;8.50;;;;;;;41.00;36.91;100450.36;106858;1285;59111;-81
2023/08/06 07:03:45;;;;;;;15.30;8.90;;;;;;;41.11;37.07;100449.02;106788;1285;59139;-78
2023/08/06 07:06:12;;;;;;;15.30;9.00;;;;;;;41.23;37.05;100445.23;106949;1284;59125;-80
2023/08/06 07:08:37;;;;;;;20.90;9.20;;;;;;;41.42;36.64;100446.58;106878;1285;59050;-80
2023/08/06 07:11:06;;;;;;;14.40;8.40;;;;;;;41.73;36.48;100446.97;106924;1284;59201;-81
2023/08/06 07:13:34;;;;;;;14.00;8.40;;;;;;;41.87;35.65;100446.45;106860;1285;60222;-79
2023/08/06 07:15:59;;;;;;;17.80;8.90;;;;;;;42.04;35.79;100441.48;106855;1285;75547;-80
2023/08/06 07:18:25;;;;;;;12.60;7.90;;;;;;;42.36;35.58;100441.20;106921;1284;59923;-81
2023/08/06 07:20:51;;;;;;;17.40;8.80;;;;;;;42.50;35.45;100437.08;106881;1285;59081;-80
2023/08/06 07:23:20;;;;;;;14.30;8.40;;;;;;;42.62;34.69;100432.78;106538;1286;59127;-79
2023/08/06 07:25:46;;;;;;;18.20;8.10;;;;;;;42.41;34.25;100432.63;106898;1286;58992;-80
2023/08/06 07:28:13;;;;;;;17.60;8.80;;;;;;;42.38;34.20;100428.31;106857;1285;74853;-81
2023/08/06 07:30:40;;;;;;;16.00;8.60;;;;;;;42.27;34.00;100426.36;106861;1285;74041;-79
2023/08/06 07:33:06;;;;;;;12.40;8.40;;;;;;;42.15;34.07;100424.58;106901;1284;72999;-80
2023/08/06 07:35:31;;;;;;;11.10;8.00;;;;;;;42.11;34.09;100421.92;106629;1285;59079;-79
2023/08/06 07:37:57;;;;;;;11.50;8.40;;;;;;;42.06;33.92;100421.77;106898;1283;59286;-79
2023/08/06 07:40:22;;;;;;;13.10;8.00;;;;;;;42.08;33.93;100415.36;106907;1285;59290;-78
2023/08/06 07:42:48;;;;;;;12.10;8.10;;;;;;;42.03;33.78;100412.98;106649;1286;59217;-79
2023/08/06 07:45:14;;;;;;;16.30;8.10;;;;;;;42.12;34.11;100412.52;106831;1285;60131;-81
2023/08/06 07:47:39;;;;;;;12.30;8.10;;;;;;;42.40;33.98;100418.19;106886;1285;59008;-80
2023/08/06 07:50:05;;;;;;;12.60;7.40;;;;;;;42.64;33.77;100412.67;106574;1283;59065;-82
2023/08/06 07:52:31;;;;;;;17.50;7.30;;;;;;;43.02;33.64;100411.55;106589;1285;59119;-79
2023/08/06 07:54:56;;;;;;;14.40;7.10;;;;;;;43.11;32.46;100410.88;106842;1286;59039;-80
2023/08/06 07:57:22;;;;;;;28.30;8.20;;;;;;;42.91;32.52;100406.09;106949;1285;58991;-79
2023/08/06 07:59:47;;;;;;;15.10;7.80;;;;;;;42.84;32.51;100397.88;106884;1285;74472;-77
2023/08/06 08:02:13;;;;;;;15.40;7.10;;;;;;;42.77;32.64;100395.60;106910;1283;59097;-80
2023/08/06 08:04:38;;;;;;;14.00;7.70;;;;;;;42.65;32.31;100392.54;106861;1284;59039;-79
2023/08/06 08:07:04;;;;;;;15.40;7.20;;;;;;;42.76;32.69;100392.84;106867;1285;59124;-79
2023/08/06 08:09:30;;;;;;;14.30;7.60;;;;;;;43.04;32.21;100396.57;106919;1284;58988;-78
2023/08/06 08:11:56;;;;;;;11.60;6.90;;;;;;;42.96;32.08;100390.63;106946;1285;59252;-79
2023/08/06 08:14:21;;;;;;;15.50;6.60;;;;;;;42.97;32.12;100385.11;106870;1286;59336;-80
2023/08/06 08:16:47;;;;;;;21.80;7.30;;;;;;;43.05;32.59;100385.30;106898;1283;59063;-79
2023/08/06 08:19:12;;;;;;;13.40;7.20;;;;;;;43.48;32.24;100386.17;106912;1284;59035;-80
2023/08/06 08:21:38;;;;;;;20.00;7.10;;;;;;;43.70;32.09;100380.37;106647;1285;59183;-79
2023/08/06 08:24:05;;;;;;;13.10;7.00;;;;;;;43.82;31.38;100377.16;106919;1285;59137;-80
2023/08/06 08:26:30;;;;;;;9.50;6.80;;;;;;;43.44;31.14;100382.66;106536;1288;60996;-81
2023/08/06 08:28:56;;;;;;;11.50;7.00;;;;;;;43.29;31.70;100381.00;106866;1287;59049;-81
2023/08/06 08:31:22;;;;;;;15.80;7.00;;;;;;;43.54;31.58;100378.64;106910;1285;58988;-80
2023/08/06 08:33:48;;;;;;;18.20;7.70;;;;;;;44.07;31.06;100374.02;106937;1285;59202;-81
2023/08/06 08:36:13;;;;;;;11.20;6.40;;;;;;;43.91;29.85;100374.34;106693;1285;59108;-79
2023/08/06 08:38:39;;;;;;;26.40;6.50;;;;;;;43.39;30.38;100367.38;106915;1284;59941;-79
2023/08/06 08:41:05;;;;;;;12.40;6.70;;;;;;;43.15;30.23;100370.05;106698;1285;75629;-79
2023/08/06 08:43:31;;;;;;;44.60;7.60;;;;;;;42.89;30.48;100371.32;106681;1285;59501;-80
2023/08/06 08:45:58;;;;;;;13.70;6.40;;;;;;;42.94;31.00;100365.30;106862;1284;59443;-80
2023/08/06 08:48:26;;;;;;;10.00;5.80;;;;;;;43.11;30.73;100353.65;106918;1285;60041;-81
2023/08/06 08:50:52;;;;;;;16.30;6.30;;;;;;;43.10;31.33;100353.92;106877;1284;60612;-80
2023/08/06 08:53:18;;;;;;;12.70;6.20;;;;;;;43.31;30.80;100348.23;106495;1284;59170;-81
2023/08/06 08:55:47;;;;;;;14.30;6.10;;;;;;;43.25;30.29;100352.37;106940;1283;59212;-81
2023/08/06 08:58:13;;;;;;;13.80;6.00;;;;;;;43.16;30.09;100351.23;106905;1283;72474;-79
2023/08/06 09:00:44;;;;;;;8.60;5.70;;;;;;;43.05;30.00;100343.05;106898;1284;58907;-81
2023/08/06 09:03:10;;;;;;;17.60;6.60;;;;;;;43.09;30.37;100349.38;106923;1284;61414;-79
2023/08/06 09:05:41;;;;;;;20.00;5.10;;;;;;;43.06;30.24;100332.30;106898;1284;75390;-81
2023/08/06 09:08:09;;;;;;;9.50;5.60;;;;;;;43.04;30.16;100339.80;106860;1284;74256;-82
2023/08/06 09:10:37;;;;;;;21.70;6.40;;;;;;;43.02;29.83;100343.01;106848;1284;72493;-81
2023/08/06 09:13:03;;;;;;;10.50;5.40;;;;;;;42.94;29.88;100338.90;106851;1283;60185;-81
2023/08/06 09:15:30;;;;;;;14.80;5.30;;;;;;;42.82;29.62;100333.41;106649;1284;59033;-79
2023/08/06 09:17:56;;;;;;;17.20;5.20;;;;;;;42.80;29.39;100332.88;106932;1285;59038;-80
2023/08/06 09:20:21;;;;;;;9.70;4.60;;;;;;;42.71;29.12;100327.21;106935;1284;59240;-79
2023/08/06 09:22:48;;;;;;;10.50;4.50;;;;;;;42.74;29.64;100322.71;106885;1284;59107;-79
2023/08/06 09:25:25;;;;;;;13.40;5.00;;;;;;;42.80;29.49;100321.62;106904;1283;59049;-79
2023/08/06 09:27:54;;;;;;;11.10;4.80;;;;;;;42.87;29.51;100314.58;106905;1284;60964;-80
2023/08/06 09:30:34;;;;;;;17.40;5.20;;;;;;;42.75;29.02;100312.98;106901;1284;74357;-79
2023/08/06 09:33:00;;;;;;;20.20;4.20;;;;;;;42.38;29.55;100308.52;106601;1284;74357;-78
2023/08/06 22:23:30;;;;;;;13.70;7.90;;;;;;;25.89;100.00;99738.39;102979;1288;614006;-77
2023/08/06 22:31:25;;;;;;;12.50;7.30;;;;;;;26.05;100.00;99727.98;102943;1291;600216;-77
2023/08/06 22:33:51;;;;;;;11.40;7.80;;;;;;;26.09;100.00;99728.73;102989;1291;60513;-78
2023/08/06 22:39:39;;;;;;;17.00;8.10;;;;;;;26.13;100.00;99726.06;103203;1290;71810;-78
2023/08/06 22:42:04;;;;;;;18.30;7.80;;;;;;;26.14;100.00;99723.38;103054;1292;60771;-77
2023/08/06 22:44:30;;;;;;;15.90;8.20;;;;;;;26.12;100.00;99722.91;102854;1292;376319;-78
2023/08/06 22:46:55;;;;;;;18.60;7.80;;;;;;;26.11;100.00;99721.08;103378;1292;60421;-78
2023/08/06 22:49:21;;;;;;;22.50;8.40;;;;;;;26.10;100.00;99715.80;103070;1287;60401;-77
2023/08/06 22:51:47;;;;;;;13.20;8.10;;;;;;;26.09;100.00;99719.34;103538;1290;74490;-78
2023/08/06 22:54:12;;;;;;;14.80;8.40;;;;;;;26.07;100.00;99717.74;103361;1287;60350;-77
2023/08/06 22:56:38;;;;;;;19.80;8.20;;;;;;;26.03;100.00;99713.14;103350;1292;60407;-79
2023/08/06 22:59:03;;;;;;;16.40;8.00;;;;;;;25.98;100.00;99711.79;103510;1286;60393;-77
2023/08/06 23:01:29;;;;;;;19.20;8.60;;;;;;;25.94;100.00;99712.63;103463;1290;60383;-78
2023/08/06 23:03:54;;;;;;;16.80;8.40;;;;;;;25.92;100.00;99706.63;103584;1286;73867;-78
2023/08/06 23:06:20;;;;;;;19.90;8.80;;;;;;;25.89;100.00;99705.02;103435;1285;60366;-77
2023/08/06 23:12:25;;;;;;;18.80;7.60;;;;;;;25.82;100.00;99702.83;102722;1290;616060;-77
2023/08/06 23:14:50;;;;;;;16.60;8.00;;;;;;;25.79;100.00;99700.03;103034;1293;60354;-79
2023/08/06 23:17:16;;;;;;;21.10;8.30;;;;;;;25.76;100.00;99700.50;102975;1293;60440;-77
2023/08/06 23:19:41;;;;;;;16.10;8.20;;;;;;;25.71;100.00;99700.30;103153;1290;60499;-76
2023/08/06 23:22:07;;;;;;;27.00;8.20;;;;;;;25.67;100.00;99698.94;103021;1294;73230;-78
2023/08/06 23:24:32;;;;;;;13.10;7.90;;;;;;;25.62;100.00;99696.07;102809;1295;260368;-78
2023/08/06 23:26:58;;;;;;;17.90;8.50;;;;;;;25.59;100.00;99695.19;103370;1290;60495;-78
2023/08/06 23:29:23;;;;;;;18.90;8.80;;;;;;;25.58;100.00;99689.02;103217;1288;60432;-78
2023/08/06 23:31:49;;;;;;;19.70;8.30;;;;;;;25.56;100.00;99685.86;103343;1292;60392;-78
2023/08/06 23:34:14;;;;;;;21.60;8.40;;;;;;;25.54;100.00;99684.49;103293;1292;60398;-78
2023/08/06 23:36:40;;;;;;;15.60;8.70;;;;;;;25.51;100.00;99681.41;103334;1292;60328;-79
2023/08/06 23:39:06;;;;;;;20.40;8.60;;;;;;;25.47;100.00;99679.71;102913;1286;60412;-78
2023/08/06 23:41:32;;;;;;;19.20;8.30;;;;;;;25.43;100.00;99678.27;103262;1286;60321;-78
2023/08/06 23:43:57;;;;;;;21.90;8.70;;;;;;;25.40;100.00;99678.48;103365;1286;61332;-78
2023/08/06 23:46:24;;;;;;;17.50;8.40;;;;;;;25.38;100.00;99678.33;103354;1286;60350;-77
2023/08/06 23:48:50;;;;;;;15.40;8.30;;;;;;;25.37;100.00;99676.73;103254;1286;75365;-78
2023/08/06 23:51:15;;;;;;;20.50;9.60;;;;;;;25.34;100.00;99678.76;103366;1286;60399;-77
2023/08/06 23:53:41;;;;;;;21.40;8.60;;;;;;;25.31;100.00;99679.91;103343;1286;60338;-77
2023/08/06 23:56:06;;;;;;;21.50;8.90;;;;;;;25.29;100.00;99681.55;103454;1286;60400;-78
2023/08/06 23:58:32;;;;;;;24.30;9.60;;;;;;;25.28;100.00;99682.73;103356;1289;60773;-78
